Time;durP1;ratioP1;P1;durP2;ratioP2;P2;SDS_P1;SDS_P2;PMS_P1;PMS_P2;Temp;Humidity;BMP_temperature;BMP_pressure;BME280_temperature;BME280_humidity;BME280_pressure;Samples;Min_cycle;Max_cycle;Signal;HPM_P1;HPM_P2
2022/02/24 00:01:31;;;;;;;12.38;6.88;;;;;;;1.42;100.00;96805.69;4992752;28;20070;-60
2022/02/24 00:04:02;;;;;;;12.13;7.03;;;;;;;1.05;100.00;96798.13;4993637;28;20066;-60
2022/02/24 00:06:31;;;;;;;9.07;6.75;;;;;;;0.92;100.00;96783.13;4973372;28;20151;-62
2022/02/24 00:08:59;;;;;;;11.55;6.90;;;;;;;1.03;100.00;96774.81;4968789;28;20472;-62
2022/02/24 00:11:28;;;;;;;12.50;7.20;;;;;;;1.15;100.00;96783.75;4989814;28;20077;-60
2022/02/24 00:13:56;;;;;;;12.48;8.30;;;;;;;1.35;100.00;96785.31;4993784;28;20073;-60
2022/02/24 00:16:25;;;;;;;20.33;9.73;;;;;;;1.25;100.00;96774.56;4974895;28;20181;-62
2022/02/24 00:18:55;;;;;;;13.10;7.78;;;;;;;1.48;100.00;96778.56;4969580;28;20063;-60
2022/02/24 00:21:23;;;;;;;13.25;7.60;;;;;;;1.46;100.00;96795.97;4969966;28;20451;-59
2022/02/24 00:23:52;;;;;;;11.48;7.18;;;;;;;1.02;100.00;96808.66;4968565;28;20495;-60
2022/02/24 00:26:20;;;;;;;8.27;6.88;;;;;;;1.35;100.00;96809.53;4969003;28;20071;-60
2022/02/24 00:28:48;;;;;;;13.20;7.30;;;;;;;1.20;100.00;96812.91;4998178;28;20117;-62
2022/02/24 00:31:17;;;;;;;11.50;6.90;;;;;;;1.01;100.00;96802.63;4990204;28;20088;-62
2022/02/24 00:33:45;;;;;;;10.43;6.47;;;;;;;0.80;100.00;96809.75;4989386;28;20058;-61
2022/02/24 00:36:15;;;;;;;11.73;6.88;;;;;;;0.86;100.00;96805.97;4998114;28;20072;-61
2022/02/24 00:38:43;;;;;;;7.88;6.25;;;;;;;1.13;100.00;96809.78;4989387;28;20066;-61
2022/02/24 00:41:12;;;;;;;11.73;6.80;;;;;;;0.78;100.00;96801.16;4994913;28;20089;-63
2022/02/24 00:43:40;;;;;;;8.52;6.90;;;;;;;0.75;100.00;96793.53;4982843;28;20081;-61
2022/02/24 00:46:09;;;;;;;10.27;8.10;;;;;;;0.53;100.00;96793.75;4994546;28;20062;-61
2022/02/24 00:48:38;;;;;;;11.95;8.00;;;;;;;0.51;100.00;96794.75;4991184;28;20070;-62
2022/02/24 00:51:06;;;;;;;12.07;6.88;;;;;;;0.69;100.00;96799.06;4990012;28;20076;-62
2022/02/24 00:53:41;;;;;;;11.98;7.38;;;;;;;0.91;100.00;96791.03;4992175;28;20168;-59
2022/02/24 00:56:10;;;;;;;12.70;7.88;;;;;;;0.78;100.00;96790.78;4972611;28;20085;-60
2022/02/24 00:58:38;;;;;;;11.90;7.57;;;;;;;0.93;100.00;96803.00;4987147;28;20069;-63
2022/02/24 01:01:07;;;;;;;11.57;7.03;;;;;;;0.91;100.00;96798.81;4990087;28;20487;-60
2022/02/24 01:03:35;;;;;;;10.15;7.25;;;;;;;0.94;100.00;96790.88;4997852;28;20076;-63
2022/02/24 01:06:04;;;;;;;10.93;7.55;;;;;;;1.09;100.00;96791.84;4995848;28;20076;-61
2022/02/24 01:08:32;;;;;;;11.13;7.35;;;;;;;1.02;100.00;96788.72;4994521;28;20488;-62
2022/02/24 01:11:03;;;;;;;13.75;7.18;;;;;;;1.13;100.00;96795.94;4994749;28;20477;-63
2022/02/24 01:13:32;;;;;;;12.52;7.00;;;;;;;1.23;100.00;96785.94;4989498;28;20062;-63
2022/02/24 01:16:00;;;;;;;13.15;6.95;;;;;;;1.17;100.00;96789.69;4976123;28;20065;-62
2022/02/24 01:18:29;;;;;;;12.43;7.43;;;;;;;1.16;100.00;96790.59;4964316;28;20077;-58
2022/02/24 01:20:58;;;;;;;10.02;6.85;;;;;;;0.84;100.00;96787.06;4972193;28;20078;-61
2022/02/24 01:23:26;;;;;;;9.60;6.80;;;;;;;0.78;100.00;96771.78;4967762;28;20082;-63
2022/02/24 01:25:55;;;;;;;12.52;6.93;;;;;;;0.86;100.00;96769.63;4970790;28;20086;-63
2022/02/24 01:28:25;;;;;;;9.27;6.63;;;;;;;1.02;100.00;96772.31;4968770;28;20058;-63
2022/02/24 01:30:53;;;;;;;8.88;6.90;;;;;;;0.80;100.00;96773.41;4966852;28;20085;-62
2022/02/24 01:33:22;;;;;;;11.23;7.28;;;;;;;0.84;100.00;96777.50;4974062;28;20069;-62
2022/02/24 01:35:50;;;;;;;12.52;7.82;;;;;;;0.76;100.00;96777.06;4986171;28;20070;-61
2022/02/24 01:38:19;;;;;;;12.90;7.45;;;;;;;0.63;100.00;96779.44;4966880;28;20081;-60
2022/02/24 01:40:47;;;;;;;9.27;7.45;;;;;;;0.70;100.00;96769.56;4993566;28;20066;-63
2022/02/24 01:43:15;;;;;;;11.93;7.90;;;;;;;0.57;100.00;96760.72;4990070;28;20301;-61
2022/02/24 01:45:45;;;;;;;11.70;7.30;;;;;;;0.83;100.00;96764.63;4994882;28;20077;-62
2022/02/24 01:48:14;;;;;;;8.02;7.22;;;;;;;0.77;100.00;96751.94;4994386;28;20517;-63
2022/02/24 01:50:43;;;;;;;12.27;7.40;;;;;;;0.95;100.00;96754.44;4984170;28;20070;-62
2022/02/24 01:53:11;;;;;;;10.05;7.43;;;;;;;0.97;100.00;96748.34;4967889;28;20091;-62
2022/02/24 01:55:40;;;;;;;13.38;7.78;;;;;;;0.79;100.00;96743.16;4969336;28;20101;-62
2022/02/24 01:58:09;;;;;;;10.23;7.10;;;;;;;0.69;100.00;96740.19;4979494;28;20062;-64
2022/02/24 02:00:39;;;;;;;13.73;7.80;;;;;;;0.60;100.00;96743.25;4984426;28;20080;-63
2022/02/24 02:03:09;;;;;;;12.98;8.45;;;;;;;0.62;100.00;96736.22;4997919;28;20077;-62
2022/02/24 02:05:38;;;;;;;13.98;8.20;;;;;;;0.77;100.00;96739.81;4987898;28;20088;-62
2022/02/24 02:08:06;;;;;;;10.30;8.07;;;;;;;0.62;100.00;96736.22;4995706;28;20084;-63
2022/02/24 02:10:35;;;;;;;11.52;8.50;;;;;;;0.58;100.00;96729.50;4986508;28;20074;-60
2022/02/24 02:13:04;;;;;;;11.45;8.60;;;;;;;0.66;100.00;96737.75;4992283;28;20070;-61
2022/02/24 02:15:35;;;;;;;11.75;8.65;;;;;;;0.63;100.00;96734.47;4989395;28;20061;-62
2022/02/24 02:18:04;;;;;;;14.65;8.77;;;;;;;0.69;100.00;96734.16;4991151;28;20524;-60
2022/02/24 02:20:38;;;;;;;12.07;8.38;;;;;;;0.85;100.00;96736.81;4985858;28;20078;-63
2022/02/24 02:23:07;;;;;;;14.68;8.32;;;;;;;0.77;100.00;96731.19;4990472;28;20081;-62
2022/02/24 02:25:35;;;;;;;12.65;8.30;;;;;;;0.84;100.00;96723.00;4987550;28;20080;-61
2022/02/24 02:28:04;;;;;;;13.85;7.85;;;;;;;0.88;100.00;96721.91;4988322;28;20062;-62
2022/02/24 02:30:33;;;;;;;10.20;7.45;;;;;;;0.86;100.00;96713.38;4995972;28;20096;-61
2022/02/24 02:33:02;;;;;;;13.15;7.43;;;;;;;0.75;100.00;96723.44;4987141;28;20073;-64
2022/02/24 02:35:30;;;;;;;9.82;7.43;;;;;;;0.67;100.00;96723.84;4989784;28;20551;-62
2022/02/24 02:38:00;;;;;;;15.73;7.93;;;;;;;0.88;100.00;96723.69;4988246;28;20085;-60
2022/02/24 02:40:28;;;;;;;9.38;7.80;;;;;;;0.46;100.00;96725.78;4989148;28;20076;-62
2022/02/24 02:42:57;;;;;;;8.82;7.00;;;;;;;0.53;100.00;96718.53;4972718;28;20067;-62
2022/02/24 02:45:25;;;;;;;11.68;7.45;;;;;;;0.64;100.00;96713.63;4963814;28;20074;-61
2022/02/24 02:47:54;;;;;;;13.88;7.53;;;;;;;0.56;100.00;96718.38;4978551;28;20065;-62
2022/02/24 02:50:22;;;;;;;11.65;7.75;;;;;;;0.51;100.00;96715.16;4987386;28;20086;-62
2022/02/24 02:52:52;;;;;;;9.13;6.95;;;;;;;0.64;100.00;96713.63;4962558;28;20083;-64
2022/02/24 02:55:21;;;;;;;11.75;7.68;;;;;;;0.77;100.00;96713.00;4966698;28;20517;-62
2022/02/24 02:57:50;;;;;;;11.93;7.40;;;;;;;0.61;100.00;96711.19;4966258;28;20046;-62
2022/02/24 03:00:23;;;;;;;12.27;8.02;;;;;;;0.78;100.00;96712.91;4969387;28;20058;-61
2022/02/24 03:02:54;;;;;;;9.95;7.32;;;;;;;0.87;100.00;96712.47;4963939;28;20043;-62
2022/02/24 03:05:23;;;;;;;11.15;7.60;;;;;;;0.71;100.00;96716.75;4973400;28;20090;-63
2022/02/24 03:07:51;;;;;;;13.52;7.63;;;;;;;0.80;100.00;96710.25;4971626;28;20054;-61
2022/02/24 03:10:21;;;;;;;9.00;7.10;;;;;;;1.07;100.00;96705.41;4966745;28;20438;-62
2022/02/24 03:12:50;;;;;;;14.38;8.15;;;;;;;1.12;100.00;96704.22;4967623;28;20521;-63
2022/02/24 03:15:19;;;;;;;14.60;7.60;;;;;;;1.16;100.00;96704.91;4966032;28;20138;-62
2022/02/24 03:17:49;;;;;;;12.23;7.93;;;;;;;1.13;100.00;96692.91;4971272;28;20074;-63
2022/02/24 03:20:17;;;;;;;13.38;7.97;;;;;;;1.16;100.00;96695.34;4974625;28;20553;-62
2022/02/24 03:22:46;;;;;;;14.18;7.45;;;;;;;1.17;100.00;96689.25;4969454;28;20466;-60
2022/02/24 03:25:14;;;;;;;12.38;7.20;;;;;;;1.13;100.00;96692.91;4968682;28;20186;-58
2022/02/24 03:27:44;;;;;;;10.50;7.47;;;;;;;1.17;100.00;96688.38;4973159;28;20100;-58
2022/02/24 03:30:13;;;;;;;9.95;7.55;;;;;;;1.21;100.00;96682.13;4977798;28;20078;-61
2022/02/24 03:32:43;;;;;;;12.30;7.43;;;;;;;1.23;100.00;96684.63;4997053;28;20073;-62
2022/02/24 03:35:11;;;;;;;12.80;7.88;;;;;;;1.24;100.00;96688.91;4998413;28;20084;-63
2022/02/24 03:37:40;;;;;;;11.18;7.35;;;;;;;1.25;100.00;96672.41;4988888;28;20426;-62
2022/02/24 03:40:10;;;;;;;10.15;7.40;;;;;;;1.13;100.00;96672.13;4995199;28;20544;-61
2022/02/24 03:42:39;;;;;;;10.75;7.30;;;;;;;1.06;100.00;96675.97;4992839;28;20480;-64
2022/02/24 03:45:10;;;;;;;7.70;6.80;;;;;;;1.07;100.00;96667.28;4984133;28;20066;-60
2022/02/24 03:47:39;;;;;;;11.48;6.70;;;;;;;1.05;100.00;96663.91;4964665;28;20102;-63
2022/02/24 03:50:08;;;;;;;10.63;7.00;;;;;;;0.99;100.00;96666.00;4972866;28;20082;-61
2022/02/24 03:52:37;;;;;;;10.02;6.57;;;;;;;0.83;100.00;96661.63;4968893;28;20067;-63
2022/02/24 03:55:06;;;;;;;10.00;6.50;;;;;;;0.82;100.00;96666.88;4983815;28;20113;-62
2022/02/24 03:57:34;;;;;;;10.57;6.57;;;;;;;0.37;100.00;96663.97;5002197;28;20069;-62
2022/02/24 04:00:05;;;;;;;10.75;6.57;;;;;;;0.54;100.00;96654.50;4988975;28;20066;-59
2022/02/24 04:02:35;;;;;;;9.73;7.20;;;;;;;0.46;100.00;96653.13;4997108;28;20085;-63
2022/02/24 04:05:05;;;;;;;11.63;7.40;;;;;;;0.73;100.00;96649.19;4993741;28;20479;-62
2022/02/24 04:07:34;;;;;;;10.85;7.60;;;;;;;0.70;100.00;96651.03;4988931;28;20062;-62
2022/02/24 04:10:04;;;;;;;11.52;7.15;;;;;;;0.35;100.00;96652.00;4974038;28;20186;-64
2022/02/24 04:12:32;;;;;;;10.80;7.35;;;;;;;0.71;100.00;96650.09;4968280;28;20851;-62
2022/02/24 04:15:00;;;;;;;15.07;7.30;;;;;;;0.61;100.00;96648.91;4969330;28;20108;-61
2022/02/24 04:17:29;;;;;;;8.75;7.10;;;;;;;0.53;100.00;96647.63;4969459;28;20078;-62
2022/02/24 04:19:59;;;;;;;10.98;7.72;;;;;;;0.53;100.00;96642.44;4971293;28;20082;-63
2022/02/24 04:22:27;;;;;;;8.18;7.38;;;;;;;0.50;100.00;96638.25;4970525;28;20544;-61
2022/02/24 04:36:13;;;;;;;9.27;7.07;;;;;;;0.67;100.00;96621.81;4966574;28;20062;-60
2022/02/24 04:38:42;;;;;;;8.23;6.88;;;;;;;0.80;100.00;96622.00;4967494;28;20066;-61
2022/02/24 04:41:13;;;;;;;7.68;6.88;;;;;;;0.83;100.00;96621.84;4969410;28;20085;-62
2022/02/24 04:43:41;;;;;;;8.18;7.25;;;;;;;0.89;100.00;96616.31;4984885;28;20101;-63
2022/02/24 04:46:10;;;;;;;10.48;6.82;;;;;;;0.90;100.00;96618.00;4972299;28;20120;-60
2022/02/24 04:48:39;;;;;;;11.15;7.05;;;;;;;0.92;100.00;96616.97;4975247;28;20070;-62
2022/02/24 04:51:07;;;;;;;11.38;7.22;;;;;;;0.87;100.00;96612.97;4985339;28;20075;-64
2022/02/24 04:53:37;;;;;;;9.23;7.18;;;;;;;0.91;100.00;96614.47;4973426;28;20089;-63
2022/02/24 04:56:06;;;;;;;7.75;6.80;;;;;;;0.70;100.00;96604.31;4973408;28;20079;-60
2022/02/24 04:58:35;;;;;;;10.43;7.30;;;;;;;0.93;100.00;96607.47;4989439;28;20066;-64
2022/02/24 05:01:03;;;;;;;12.32;7.30;;;;;;;0.87;100.00;96602.59;4994234;28;20093;-63
2022/02/24 05:03:32;;;;;;;15.80;7.32;;;;;;;0.71;100.00;96602.56;4995734;28;20081;-64
2022/02/24 05:06:01;;;;;;;9.90;6.97;;;;;;;0.84;100.00;96601.00;4994448;28;20080;-63
2022/02/24 05:08:30;;;;;;;10.50;7.47;;;;;;;0.66;100.00;96594.19;4994141;28;20090;-62
2022/02/24 05:11:00;;;;;;;9.02;7.35;;;;;;;0.80;100.00;96585.66;4991782;28;20086;-61
2022/02/24 05:13:28;;;;;;;9.60;7.20;;;;;;;0.74;100.00;96591.19;4989465;28;20062;-61
2022/02/24 05:15:57;;;;;;;12.60;7.88;;;;;;;0.83;100.00;96595.88;4976874;28;20073;-62
2022/02/24 05:18:25;;;;;;;12.00;7.63;;;;;;;0.89;100.00;96600.72;4962887;28;20059;-64
2022/02/24 05:20:54;;;;;;;9.10;7.05;;;;;;;0.85;100.00;96591.44;4964710;28;20071;-63
2022/02/24 05:23:24;;;;;;;;;;;;;;;0.42;100.00;96584.16;4966953;28;20057;-61
2022/02/24 05:25:53;;;;;;;8.25;7.32;;;;;;;0.50;100.00;96586.34;4974109;28;19964;-63
2022/02/24 05:28:23;;;;;;;10.90;7.53;;;;;;;0.49;100.00;96586.44;4967864;28;20089;-62
2022/02/24 05:30:58;;;;;;;10.20;7.30;;;;;;;0.45;100.00;96590.97;4962874;28;20085;-61
2022/02/24 05:33:28;;;;;;;9.95;7.20;;;;;;;0.50;100.00;96583.75;4973599;28;20066;-62
2022/02/24 05:35:57;;;;;;;8.87;7.60;;;;;;;0.56;100.00;96578.25;4981252;28;20075;-62
2022/02/24 05:38:26;;;;;;;8.80;7.90;;;;;;;0.40;100.00;96580.78;4970618;28;20074;-63
2022/02/24 05:40:54;;;;;;;10.75;8.02;;;;;;;0.23;100.00;96581.66;4967691;28;20081;-61
2022/02/24 05:43:25;;;;;;;9.10;7.50;;;;;;;0.21;100.00;96573.13;4972211;28;20078;-62
2022/02/24 05:45:53;;;;;;;10.68;7.43;;;;;;;0.29;100.00;96571.91;4968330;28;20659;-63
2022/02/24 05:48:22;;;;;;;9.50;7.82;;;;;;;0.61;100.00;96570.22;4960890;28;20066;-60
2022/02/24 05:50:50;;;;;;;9.15;7.75;;;;;;;0.70;100.00;96578.38;4966976;28;20066;-62
2022/02/24 05:53:19;;;;;;;10.70;7.55;;;;;;;0.76;100.00;96572.00;4966516;28;20493;-62
2022/02/24 05:55:47;;;;;;;10.82;7.72;;;;;;;0.82;100.00;96574.25;4970577;28;20521;-61
2022/02/24 05:58:16;;;;;;;9.23;7.20;;;;;;;0.76;100.00;96565.97;4983788;28;20078;-63
2022/02/24 06:00:45;;;;;;;9.00;7.60;;;;;;;0.80;100.00;96572.69;4980404;28;20069;-61
2022/02/24 06:03:14;;;;;;;12.82;7.63;;;;;;;0.67;100.00;96562.94;4967292;28;20054;-63
2022/02/24 06:05:43;;;;;;;8.45;7.07;;;;;;;0.58;100.00;96562.59;4980193;28;20070;-63
2022/02/24 06:08:11;;;;;;;9.75;7.15;;;;;;;0.87;100.00;96568.84;4967475;28;20061;-60
2022/02/24 06:10:40;;;;;;;9.35;7.47;;;;;;;0.94;100.00;96567.59;4964260;28;20065;-62
2022/02/24 06:13:08;;;;;;;10.50;7.43;;;;;;;1.02;100.00;96572.34;4990278;28;20076;-61
2022/02/24 06:15:36;;;;;;;10.45;7.72;;;;;;;1.09;100.00;96569.34;4992274;28;20061;-63
2022/02/24 06:18:10;;;;;;;11.48;8.27;;;;;;;1.11;100.00;96572.69;4989815;28;20496;-64
2022/02/24 06:20:39;;;;;;;11.07;7.97;;;;;;;1.23;100.00;96567.75;5002967;28;26002;-61
2022/02/24 06:23:07;;;;;;;8.50;6.85;;;;;;;1.37;100.00;96562.63;4989914;28;20077;-58
2022/02/24 06:25:35;;;;;;;9.35;7.25;;;;;;;1.44;100.00;96553.56;4985154;28;20066;-62
2022/02/24 06:28:04;;;;;;;9.13;7.00;;;;;;;1.55;100.00;96556.41;4990543;28;20450;-62
2022/02/24 06:30:33;;;;;;;9.80;7.65;;;;;;;1.69;100.00;96553.03;4992064;28;20078;-60
2022/02/24 06:33:02;;;;;;;10.80;7.45;;;;;;;1.84;100.00;96549.53;4987004;28;20074;-63
2022/02/24 06:35:32;;;;;;;8.68;7.60;;;;;;;1.99;100.00;96549.53;4989653;28;20085;-63
2022/02/24 06:38:02;;;;;;;8.27;7.13;;;;;;;2.01;100.00;96545.09;4991051;28;20539;-62
2022/02/24 06:40:31;;;;;;;9.27;7.07;;;;;;;1.96;100.00;96541.94;4985143;28;20074;-63
2022/02/24 06:43:00;;;;;;;8.50;7.35;;;;;;;2.05;100.00;96538.78;4987202;28;20513;-63
2022/02/24 06:45:28;;;;;;;7.90;7.10;;;;;;;2.08;100.00;96541.22;4992617;28;20070;-64
2022/02/24 06:47:57;;;;;;;9.63;6.57;;;;;;;2.10;100.00;96541.97;4996968;28;20054;-63
2022/02/24 06:50:25;;;;;;;10.00;7.28;;;;;;;2.07;100.00;96532.59;4984666;28;20069;-63
2022/02/24 06:52:55;;;;;;;10.70;7.63;;;;;;;1.90;100.00;96530.13;4986564;28;20093;-63
2022/02/24 06:55:24;;;;;;;13.93;8.65;;;;;;;2.34;100.00;96532.69;4990275;28;20100;-64
2022/02/24 06:57:53;;;;;;;13.15;7.93;;;;;;;2.72;100.00;96537.34;4984297;28;20070;-65
2022/02/24 07:00:22;;;;;;;13.73;8.68;;;;;;;2.83;100.00;96531.47;4990755;28;20076;-63
2022/02/24 07:02:52;;;;;;;9.80;7.90;;;;;;;3.05;100.00;96529.16;4991834;28;20139;-63
2022/02/24 07:05:22;;;;;;;12.73;8.77;;;;;;;3.19;100.00;96530.06;4987134;28;20038;-63
2022/02/24 07:07:50;;;;;;;11.55;8.55;;;;;;;3.30;100.00;96528.47;4966883;28;20090;-63
2022/02/24 07:10:24;;;;;;;10.93;7.82;;;;;;;3.59;100.00;96530.97;4982566;28;20069;-66
2022/02/24 07:12:53;;;;;;;10.65;7.82;;;;;;;3.49;100.00;96520.28;4989938;28;20472;-63
2022/02/24 07:15:22;;;;;;;11.02;8.30;;;;;;;3.77;100.00;96527.13;4988624;28;20073;-65
2022/02/24 07:17:50;;;;;;;13.60;7.82;;;;;;;4.03;100.00;96520.19;4986737;28;20503;-65
2022/02/24 07:20:19;;;;;;;11.10;8.68;;;;;;;3.91;100.00;96521.00;4993959;28;20108;-61
2022/02/24 07:22:48;;;;;;;11.05;8.25;;;;;;;4.20;100.00;96515.63;4990191;28;20462;-64
2022/02/24 07:25:16;;;;;;;11.32;7.78;;;;;;;4.31;100.00;96514.88;4988817;28;20536;-64
2022/02/24 07:27:46;;;;;;;14.05;9.60;;;;;;;4.53;100.00;96502.84;4986859;28;20609;-61
2022/02/24 07:30:15;;;;;;;10.40;7.25;;;;;;;4.70;100.00;96509.50;4992664;28;20069;-63
2022/02/24 07:32:43;;;;;;;9.02;6.88;;;;;;;4.89;100.00;96505.63;4984158;28;20062;-61
2022/02/24 07:35:13;;;;;;;8.48;7.18;;;;;;;5.06;100.00;96502.66;4972677;28;20097;-65
2022/02/24 07:37:41;;;;;;;8.15;7.13;;;;;;;5.24;100.00;96493.47;4989983;28;20065;-61
2022/02/24 07:40:10;;;;;;;8.35;7.15;;;;;;;5.13;100.00;96500.44;4972531;28;20071;-62
2022/02/24 07:42:39;;;;;;;10.38;7.78;;;;;;;5.41;100.00;96492.25;4975893;28;20062;-61
2022/02/24 07:45:10;;;;;;;9.85;7.90;;;;;;;5.55;100.00;96490.41;4992584;28;20073;-60
2022/02/24 07:47:38;;;;;;;13.40;9.98;;;;;;;5.73;100.00;96481.19;4997204;28;26164;-65
2022/02/24 07:50:13;;;;;;;17.25;11.05;;;;;;;5.76;100.00;96483.56;4992397;28;20081;-63
2022/02/24 07:52:42;;;;;;;12.13;8.98;;;;;;;5.40;100.00;96485.34;4990376;28;20081;-62
2022/02/24 07:55:11;;;;;;;10.55;8.30;;;;;;;5.56;100.00;96489.44;4994428;28;20070;-62
2022/02/24 07:57:40;;;;;;;16.48;11.02;;;;;;;5.79;100.00;96493.81;4994200;28;20073;-58
2022/02/24 08:00:13;;;;;;;15.43;11.27;;;;;;;6.03;100.00;96493.78;4989646;28;20066;-61
2022/02/24 08:02:42;;;;;;;12.05;8.68;;;;;;;6.25;100.00;96485.13;4995651;28;20078;-62
2022/02/24 08:05:11;;;;;;;12.15;7.55;;;;;;;6.28;100.00;96491.94;4994049;28;20082;-60
2022/02/24 08:07:40;;;;;;;7.97;6.18;;;;;;;6.60;100.00;96489.44;4994771;28;20065;-61
2022/02/24 08:10:09;;;;;;;5.25;4.75;;;;;;;6.82;100.00;96481.56;4989429;28;20077;-62
2022/02/24 08:12:42;;;;;;;9.90;6.30;;;;;;;6.95;100.00;96475.34;4994308;28;20512;-62
2022/02/24 08:15:14;;;;;;;8.20;6.00;;;;;;;6.96;100.00;96472.63;4995606;28;20145;-62
2022/02/24 08:17:43;;;;;;;7.88;5.78;;;;;;;6.99;100.00;96476.78;4990773;28;20073;-63
2022/02/24 08:20:12;;;;;;;8.80;6.22;;;;;;;6.74;100.00;96468.22;4990835;28;20081;-61
2022/02/24 08:22:42;;;;;;;8.15;6.30;;;;;;;6.75;100.00;96466.47;4993880;28;20513;-63
2022/02/24 08:25:12;;;;;;;7.60;6.57;;;;;;;7.15;100.00;96464.09;4990014;28;20074;-64
2022/02/24 08:27:41;;;;;;;7.03;5.70;;;;;;;7.26;100.00;96468.47;4986444;28;20078;-63
2022/02/24 08:30:13;;;;;;;7.68;5.57;;;;;;;7.34;100.00;96469.53;4997800;28;20548;-63
2022/02/24 08:32:42;;;;;;;8.23;5.45;;;;;;;7.78;100.00;96474.75;4996495;28;20504;-63
2022/02/24 08:35:12;;;;;;;8.95;5.32;;;;;;;7.75;100.00;96462.69;4995608;28;20696;-63
2022/02/24 08:37:41;;;;;;;6.40;4.87;;;;;;;6.86;100.00;96467.25;4988818;28;20069;-61
2022/02/24 08:40:10;;;;;;;6.70;4.30;;;;;;;7.37;100.00;96464.03;4996425;28;20073;-63
2022/02/24 08:42:38;;;;;;;6.63;4.90;;;;;;;6.60;100.00;96466.69;4993077;28;20080;-62
2022/02/24 08:45:07;;;;;;;5.50;4.43;;;;;;;6.83;100.00;96459.66;4990919;28;20062;-60
2022/02/24 08:47:40;;;;;;;4.75;4.20;;;;;;;7.19;100.00;96449.81;4994591;28;20085;-60
2022/02/24 08:50:11;;;;;;;5.50;4.38;;;;;;;7.50;100.00;96457.78;4997022;28;20575;-62
2022/02/24 08:53:00;;;;;;;6.00;4.70;;;;;;;8.05;100.00;96447.94;4993199;28;20489;-61
2022/02/24 08:55:31;;;;;;;6.88;4.38;;;;;;;7.58;100.00;96450.13;4974100;28;20073;-62
2022/02/24 08:58:00;;;;;;;6.28;4.45;;;;;;;7.68;100.00;96432.66;4984768;28;20339;-62
2022/02/24 09:00:30;;;;;;;4.33;3.90;;;;;;;7.23;100.00;96430.25;4979649;28;20077;-62
2022/02/24 09:02:59;;;;;;;4.72;4.10;;;;;;;7.46;100.00;96427.50;4973689;28;20907;-61
2022/02/24 09:05:28;;;;;;;7.10;5.82;;;;;;;7.43;100.00;96425.97;4979934;28;20074;-61
2022/02/24 09:07:57;;;;;;;6.28;4.90;;;;;;;8.24;100.00;96420.97;4969912;28;20078;-63
2022/02/24 09:10:29;;;;;;;9.05;5.03;;;;;;;8.65;100.00;96416.59;4963057;28;20067;-62
2022/02/24 09:12:58;;;;;;;7.50;5.00;;;;;;;9.02;100.00;96408.94;4963786;28;20070;-63
2022/02/24 09:15:26;;;;;;;5.15;4.07;;;;;;;9.15;100.00;96421.81;4962616;28;20077;-63
2022/02/24 09:17:54;;;;;;;5.20;3.92;;;;;;;9.02;100.00;96424.72;4968513;28;20478;-63
2022/02/24 09:20:24;;;;;;;5.47;3.90;;;;;;;9.14;100.00;96415.72;4966783;28;20082;-62
2022/02/24 09:22:53;;;;;;;6.75;3.85;;;;;;;8.13;100.00;96419.25;4968603;28;20529;-62
2022/02/24 09:25:23;;;;;;;5.80;3.65;;;;;;;9.00;100.00;96414.31;4970960;28;20067;-63
2022/02/24 09:27:51;;;;;;;5.90;3.70;;;;;;;9.04;100.00;96415.69;4989719;28;20073;-63
2022/02/24 09:30:20;;;;;;;4.13;3.70;;;;;;;9.25;100.00;96404.25;4992973;28;20078;-64
2022/02/24 09:32:55;;;;;;;5.93;4.00;;;;;;;9.76;100.00;96387.31;4988577;28;20073;-63
2022/02/24 09:35:26;;;;;;;5.93;3.60;;;;;;;9.45;100.00;96390.09;4995427;28;20156;-62
2022/02/24 09:37:54;;;;;;;4.03;3.58;;;;;;;9.86;100.00;96388.13;4991319;28;20118;-63
2022/02/24 09:40:25;;;;;;;5.22;3.30;;;;;;;9.98;100.00;96389.63;4989519;28;20521;-63
2022/02/24 09:43:14;;;;;;;;;;;;;;;9.67;100.00;96377.63;4992972;28;20070;-63
2022/02/24 09:45:43;;;;;;;4.70;3.40;;;;;;;10.49;100.00;96371.72;4993133;28;19968;-63
2022/02/24 09:48:13;;;;;;;5.68;3.38;;;;;;;10.50;100.00;96381.28;4989228;28;20061;-62
2022/02/24 09:50:49;;;;;;;4.13;3.42;;;;;;;10.54;100.00;96382.66;4981854;28;20070;-64
2022/02/24 09:53:18;;;;;;;4.90;3.70;;;;;;;10.99;100.00;96373.09;4994050;28;20081;-62
2022/02/24 09:55:46;;;;;;;4.78;3.50;;;;;;;10.87;100.00;96370.69;4992911;28;21829;-64
2022/02/24 09:58:15;;;;;;;6.03;3.30;;;;;;;10.64;100.00;96382.63;4988478;28;20062;-63
2022/02/24 10:00:47;;;;;;;5.20;3.20;;;;;;;11.07;100.00;96379.28;4991286;28;20088;-63
2022/02/24 10:03:27;;;;;;;6.70;3.10;;;;;;;11.33;100.00;96376.75;4990720;28;20073;-62
2022/02/24 10:05:57;;;;;;;5.63;3.95;;;;;;;11.52;100.00;96367.81;4992098;28;20486;-63
2022/02/24 10:08:30;;;;;;;3.78;3.33;;;;;;;11.67;100.00;96367.28;4985674;28;20081;-63
2022/02/24 10:11:00;;;;;;;4.30;3.70;;;;;;;11.59;100.00;96366.22;4994680;28;20077;-62
2022/02/24 10:13:29;;;;;;;4.82;3.65;;;;;;;12.16;100.00;96357.88;4989293;28;20061;-64
2022/02/24 10:15:59;;;;;;;4.85;3.67;;;;;;;12.42;100.00;96352.56;4988560;28;20069;-64
2022/02/24 10:18:30;;;;;;;5.07;3.70;;;;;;;11.99;100.00;96364.06;4989442;28;20092;-62
2022/02/24 10:21:01;;;;;;;5.20;3.53;;;;;;;10.75;100.00;96355.22;4989441;28;20097;-62
2022/02/24 10:23:34;;;;;;;8.18;3.70;;;;;;;11.35;100.00;96343.06;5000289;28;20076;-64
2022/02/24 10:26:04;;;;;;;8.77;3.97;;;;;;;12.16;100.00;96331.44;4989528;28;20590;-63
2022/02/24 10:28:35;;;;;;;4.78;3.67;;;;;;;11.81;100.00;96342.94;4986334;28;20080;-61
2022/02/24 10:31:09;;;;;;;5.18;3.53;;;;;;;11.93;100.00;96344.34;4989788;28;20082;-63
2022/02/24 10:33:38;;;;;;;6.00;3.45;;;;;;;12.14;100.00;96332.59;4988869;28;20594;-62
2022/02/24 10:36:16;;;;;;;5.03;3.20;;;;;;;12.54;100.00;96329.31;4991416;28;20069;-63
2022/02/24 10:38:47;;;;;;;4.88;3.28;;;;;;;12.19;100.00;96320.56;4991175;28;20077;-63
2022/02/24 10:41:16;;;;;;;;;;;;;;;12.32;100.00;96323.59;4991664;28;20092;-64
2022/02/24 10:43:47;;;;;;;4.15;2.92;;;;;;;11.77;100.00;96317.81;4986805;28;19969;-63
2022/02/24 10:46:17;;;;;;;5.75;3.00;;;;;;;11.81;100.00;96313.88;4987415;28;20080;-63
2022/02/24 10:48:50;;;;;;;4.38;2.80;;;;;;;11.62;100.00;96315.72;4990183;28;20069;-62
2022/02/24 10:51:25;;;;;;;3.90;2.80;;;;;;;11.83;100.00;96299.50;4999263;28;20084;-62
2022/02/24 10:54:03;;;;;;;3.10;2.78;;;;;;;12.48;100.00;96284.97;4985225;28;20419;-62
2022/02/24 10:56:33;;;;;;;4.30;2.88;;;;;;;12.85;100.00;96294.34;4981009;28;20078;-62
2022/02/24 10:59:01;;;;;;;7.15;3.40;;;;;;;12.81;100.00;96291.19;4989852;28;20473;-64
2022/02/24 11:01:30;;;;;;;7.28;3.20;;;;;;;12.89;100.00;96280.59;4992722;28;20070;-63
2022/02/24 11:04:00;;;;;;;5.20;2.88;;;;;;;12.75;100.00;96278.59;4987171;28;20102;-62
2022/02/24 11:06:33;;;;;;;6.53;3.00;;;;;;;12.80;100.00;96270.97;4988680;28;20073;-63
2022/02/24 11:09:03;;;;;;;6.72;3.50;;;;;;;13.17;100.00;96269.69;4992669;28;20073;-62
2022/02/24 11:11:33;;;;;;;6.43;3.20;;;;;;;12.78;100.00;96263.22;4988588;28;20093;-62
2022/02/24 11:14:05;;;;;;;5.57;3.10;;;;;;;13.01;100.00;96258.13;4988045;28;20081;-63
2022/02/24 11:16:34;;;;;;;5.03;2.83;;;;;;;13.23;100.00;96250.50;4990591;28;20070;-63
2022/02/24 11:19:03;;;;;;;8.25;3.30;;;;;;;13.88;100.00;96250.44;4991838;28;20445;-64
2022/02/24 11:21:33;;;;;;;5.30;3.30;;;;;;;12.89;100.00;96250.66;4990987;28;20077;-63
2022/02/24 11:24:02;;;;;;;6.82;3.10;;;;;;;13.56;100.00;96239.91;4994781;28;20074;-63
2022/02/24 11:26:41;;;;;;;4.13;2.90;;;;;;;14.11;98.61;96233.78;4995542;28;20077;-62
2022/02/24 11:29:21;;;;;;;4.50;3.05;;;;;;;14.37;95.10;96229.00;4998655;28;20085;-63
2022/02/24 11:32:03;;;;;;;3.90;2.70;;;;;;;14.23;91.85;96227.09;4983686;28;20471;-64
2022/02/24 11:34:54;;;;;;;5.15;2.75;;;;;;;13.96;97.59;96223.88;4988504;28;20078;-64
2022/02/24 11:37:28;;;;;;;5.80;2.80;;;;;;;14.18;98.13;96216.19;4988280;28;20068;-63
2022/02/24 11:40:02;;;;;;;3.10;2.70;;;;;;;14.53;86.59;96211.41;4996515;28;20716;-62
2022/02/24 11:42:32;;;;;;;6.75;3.08;;;;;;;14.10;89.92;96200.31;4990482;28;20093;-62
2022/02/24 11:45:01;;;;;;;5.75;2.75;;;;;;;14.43;83.22;96187.72;4984058;28;20520;-62
2022/02/24 11:47:30;;;;;;;6.50;2.80;;;;;;;14.48;86.17;96190.66;4961669;28;20079;-62
2022/02/24 11:50:09;;;;;;;6.22;2.22;;;;;;;14.12;79.09;96193.84;4965566;28;20089;-63
2022/02/24 11:52:54;;;;;;;2.83;1.90;;;;;;;14.23;83.91;96189.97;4967629;28;20085;-62